createdAt,value
2022-12-31T00:00:10.982Z,5.19
2022-12-31T00:02:37.591Z,5.16
2022-12-31T00:05:04.540Z,5.21
2022-12-31T00:09:57.212Z,5.19
2022-12-31T00:12:23.717Z,5.20
2022-12-31T00:14:50.177Z,5.18
2022-12-31T00:17:16.620Z,5.21
2022-12-31T00:19:43.033Z,5.24
2022-12-31T00:22:09.964Z,5.24
2022-12-31T00:24:36.389Z,5.19
2022-12-31T00:27:02.818Z,5.21
2022-12-31T00:29:29.173Z,5.20
2022-12-31T00:31:55.581Z,5.22
2022-12-31T00:34:22.097Z,5.27
2022-12-31T00:36:48.717Z,5.20
2022-12-31T00:39:15.161Z,5.22
2022-12-31T00:41:43.858Z,5.30
2022-12-31T00:44:13.710Z,5.31
2022-12-31T00:49:06.242Z,5.26
2022-12-31T00:51:32.721Z,5.25
2022-12-31T00:53:59.270Z,5.25
2022-12-31T00:56:28.590Z,5.24
2022-12-31T00:58:55.234Z,5.24
2022-12-31T01:01:27.984Z,5.28
2022-12-31T01:03:58.605Z,5.28
2022-12-31T01:06:25.944Z,5.33
2022-12-31T01:08:53.897Z,5.29
2022-12-31T01:11:23.429Z,5.31
2022-12-31T01:13:58.956Z,5.30
2022-12-31T01:16:34.574Z,5.28
2022-12-31T01:19:04.659Z,5.25
2022-12-31T01:21:31.765Z,5.29
2022-12-31T01:23:59.405Z,5.32
2022-12-31T01:26:27.197Z,5.33
2022-12-31T01:28:53.901Z,5.33
2022-12-31T01:31:22.328Z,5.30
2022-12-31T01:33:49.744Z,5.29
2022-12-31T01:36:25.382Z,5.29
2022-12-31T01:38:53.640Z,5.26
2022-12-31T01:41:23.685Z,5.26
2022-12-31T01:43:56.362Z,5.22
2022-12-31T01:46:34.903Z,5.19
2022-12-31T01:49:13.099Z,5.18
2022-12-31T01:51:41.529Z,5.17
2022-12-31T01:54:10.625Z,5.16
2022-12-31T01:56:39.060Z,5.17
2022-12-31T01:59:08.102Z,5.12
2022-12-31T02:01:38.391Z,5.10
2022-12-31T02:04:11.804Z,5.07
2022-12-31T02:06:44.035Z,5.22
2022-12-31T02:09:11.920Z,5.16
2022-12-31T02:11:38.352Z,5.08
2022-12-31T02:14:36.907Z,5.06
2022-12-31T02:17:25.068Z,5.09
2022-12-31T02:20:29.259Z,5.08
2022-12-31T02:23:06.541Z,5.08
2022-12-31T02:25:51.490Z,5.06
2022-12-31T02:28:44.414Z,4.96
2022-12-31T02:31:21.742Z,4.88
2022-12-31T02:33:56.016Z,4.99
2022-12-31T02:36:33.260Z,5.01
2022-12-31T02:39:01.809Z,4.98
2022-12-31T02:41:46.931Z,5.01
2022-12-31T02:44:27.042Z,5.07
2022-12-31T02:47:08.652Z,5.12
2022-12-31T02:49:55.410Z,5.12
2022-12-31T02:52:28.857Z,5.08
2022-12-31T02:55:32.912Z,5.05
2022-12-31T02:58:12.908Z,5.07
2022-12-31T03:01:05.791Z,5.11
2022-12-31T03:03:33.037Z,5.15
2022-12-31T03:06:03.045Z,5.15
2022-12-31T03:08:29.472Z,5.16
2022-12-31T03:10:57.007Z,5.20
2022-12-31T03:13:24.571Z,5.22
2022-12-31T03:15:51.062Z,5.19
2022-12-31T03:18:38.979Z,5.23
2022-12-31T03:21:31.240Z,5.26
2022-12-31T03:24:16.055Z,5.34
2022-12-31T03:26:42.453Z,5.41
2022-12-31T03:29:08.885Z,5.56
2022-12-31T03:31:35.315Z,5.58
2022-12-31T03:34:01.784Z,5.70
2022-12-31T03:36:28.155Z,5.73
2022-12-31T03:38:55.238Z,5.76
2022-12-31T03:41:21.593Z,5.88
2022-12-31T03:43:48.029Z,5.95
2022-12-31T03:46:14.544Z,6.16
2022-12-31T03:48:40.946Z,6.35
2022-12-31T03:51:07.388Z,6.61
2022-12-31T03:53:35.546Z,6.77
2022-12-31T03:56:01.904Z,6.97
2022-12-31T03:58:28.293Z,7.18
2022-12-31T04:00:54.691Z,7.38
2022-12-31T04:03:21.223Z,7.52
2022-12-31T04:05:55.515Z,7.66
2022-12-31T04:08:23.516Z,7.68
2022-12-31T04:10:49.976Z,7.74
2022-12-31T04:13:16.313Z,7.78
2022-12-31T04:15:42.677Z,7.81
2022-12-31T04:18:09.013Z,7.81
2022-12-31T04:20:35.365Z,7.86
2022-12-31T04:23:01.744Z,7.88
2022-12-31T04:25:28.144Z,7.83
2022-12-31T04:27:54.496Z,7.78
2022-12-31T04:30:20.829Z,7.82
2022-12-31T04:32:47.210Z,7.81
2022-12-31T04:35:13.606Z,7.88
2022-12-31T04:37:40.012Z,7.96
2022-12-31T04:40:07.795Z,8.06
2022-12-31T04:42:35.256Z,8.08
2022-12-31T04:45:01.761Z,8.16
2022-12-31T04:47:28.205Z,8.19
2022-12-31T04:49:54.606Z,8.20
2022-12-31T04:52:21.323Z,8.27
2022-12-31T04:54:47.696Z,8.25
2022-12-31T04:57:14.217Z,8.30
2022-12-31T04:59:40.595Z,8.26
2022-12-31T05:02:07.242Z,8.40
2022-12-31T05:04:33.730Z,8.52
2022-12-31T05:07:00.159Z,8.55
2022-12-31T05:09:28.328Z,8.55
2022-12-31T05:11:54.780Z,8.55
2022-12-31T05:14:21.215Z,8.61
2022-12-31T05:16:47.607Z,8.74
2022-12-31T05:19:14.090Z,8.78
2022-12-31T05:21:40.496Z,8.81
2022-12-31T05:24:07.304Z,8.87
2022-12-31T05:26:33.723Z,8.89
2022-12-31T05:29:00.493Z,8.91
2022-12-31T05:31:26.867Z,8.85
2022-12-31T05:33:53.267Z,8.87
2022-12-31T05:36:19.643Z,8.88
2022-12-31T05:38:46.023Z,8.95
2022-12-31T05:41:12.383Z,8.93
2022-12-31T05:43:38.744Z,8.94
2022-12-31T05:46:05.260Z,8.97
2022-12-31T05:48:32.077Z,8.94
2022-12-31T05:50:58.653Z,8.98
2022-12-31T05:53:25.100Z,8.93
2022-12-31T05:55:51.478Z,8.96
2022-12-31T05:58:17.897Z,9.03
2022-12-31T06:00:44.423Z,9.01
2022-12-31T06:03:11.178Z,8.98
2022-12-31T06:05:43.013Z,9.03
2022-12-31T06:08:10.580Z,9.04
2022-12-31T06:10:37.009Z,9.02
2022-12-31T06:13:04.108Z,9.01
2022-12-31T06:15:30.908Z,8.98
2022-12-31T06:17:57.425Z,9.05
2022-12-31T06:20:23.838Z,9.07
2022-12-31T06:22:50.342Z,8.97
2022-12-31T06:25:16.714Z,8.92
2022-12-31T06:27:44.155Z,8.94
2022-12-31T06:30:11.202Z,8.88
2022-12-31T06:32:39.270Z,8.82
2022-12-31T06:35:06.528Z,8.73
2022-12-31T06:37:32.910Z,8.68
2022-12-31T06:39:59.567Z,8.64
2022-12-31T06:42:29.322Z,8.55
2022-12-31T06:44:55.722Z,8.51
2022-12-31T06:47:22.216Z,8.45
2022-12-31T06:49:48.570Z,8.40
2022-12-31T06:52:14.919Z,8.29
2022-12-31T06:54:41.514Z,8.21
2022-12-31T06:57:09.617Z,8.11
2022-12-31T06:59:36.391Z,8.00
2022-12-31T07:02:32.720Z,7.97
2022-12-31T07:05:08.546Z,7.94
2022-12-31T07:07:42.173Z,7.82
2022-12-31T07:10:29.456Z,7.67
2022-12-31T07:13:24.041Z,7.55
2022-12-31T07:15:59.505Z,7.45
2022-12-31T07:18:40.032Z,7.39
2022-12-31T07:21:15.059Z,7.34
2022-12-31T07:23:42.609Z,7.34
2022-12-31T07:26:23.969Z,7.33
2022-12-31T07:29:05.375Z,7.35
2022-12-31T07:31:55.164Z,7.34
2022-12-31T07:34:43.254Z,7.29
2022-12-31T07:37:39.515Z,7.32
2022-12-31T07:40:15.816Z,7.33
2022-12-31T07:43:03.602Z,7.28
2022-12-31T07:45:37.096Z,7.26
2022-12-31T07:48:03.854Z,7.24
2022-12-31T07:50:30.704Z,7.25
2022-12-31T07:52:57.365Z,7.24
2022-12-31T07:55:23.784Z,7.25
2022-12-31T07:57:59.393Z,7.23
2022-12-31T08:00:26.424Z,7.26
2022-12-31T08:03:10.474Z,7.30
2022-12-31T08:06:02.675Z,7.31
2022-12-31T08:08:41.223Z,7.35
2022-12-31T08:11:20.673Z,7.39
2022-12-31T08:13:47.420Z,7.48
2022-12-31T08:16:14.187Z,7.52
2022-12-31T08:18:41.072Z,7.63
2022-12-31T08:21:19.378Z,7.67
2022-12-31T08:24:01.013Z,7.71
2022-12-31T08:26:52.626Z,7.80
2022-12-31T08:29:42.322Z,7.78
2022-12-31T08:32:23.005Z,7.80
2022-12-31T08:35:13.422Z,7.83
2022-12-31T08:37:54.725Z,7.87
2022-12-31T08:40:28.324Z,7.89
2022-12-31T08:43:00.863Z,7.88
2022-12-31T08:45:57.117Z,7.92
2022-12-31T08:48:40.287Z,7.97
2022-12-31T08:51:14.479Z,8.04
2022-12-31T08:53:41.110Z,8.13
2022-12-31T08:56:17.203Z,8.16
2022-12-31T08:59:05.001Z,8.26
2022-12-31T09:01:43.361Z,8.29
2022-12-31T09:04:27.782Z,8.38
2022-12-31T09:07:01.243Z,8.64
2022-12-31T09:09:44.119Z,8.97
2022-12-31T09:12:14.516Z,9.32
2022-12-31T09:14:50.409Z,9.66
2022-12-31T09:17:43.971Z,9.88
2022-12-31T09:20:20.232Z,10.05
2022-12-31T09:22:46.855Z,10.26
2022-12-31T09:25:15.466Z,10.54
2022-12-31T09:28:03.278Z,10.72
2022-12-31T09:30:42.229Z,10.79
2022-12-31T09:33:20.009Z,10.90
2022-12-31T09:35:52.385Z,11.05
2022-12-31T09:38:22.581Z,11.25
2022-12-31T09:41:07.369Z,11.35
2022-12-31T09:44:11.398Z,11.45
2022-12-31T09:46:55.922Z,11.55
2022-12-31T09:49:40.934Z,11.69
2022-12-31T09:52:34.113Z,11.72
2022-12-31T09:55:21.437Z,11.70
2022-12-31T09:57:56.253Z,11.83
2022-12-31T10:00:34.577Z,11.92
2022-12-31T10:03:19.751Z,11.94
2022-12-31T10:05:55.250Z,11.97
2022-12-31T10:08:36.976Z,12.04
2022-12-31T10:11:14.622Z,12.04
2022-12-31T10:13:46.869Z,12.11
2022-12-31T10:16:43.991Z,12.23
2022-12-31T10:19:13.065Z,12.28
2022-12-31T10:22:32.993Z,12.25
2022-12-31T10:25:38.370Z,12.29
2022-12-31T10:28:15.139Z,12.29
2022-12-31T10:30:52.158Z,12.39
2022-12-31T10:33:49.413Z,12.37
2022-12-31T10:36:26.098Z,12.41
2022-12-31T10:39:10.744Z,12.42
2022-12-31T10:42:02.627Z,12.37
2022-12-31T10:44:47.373Z,12.47
2022-12-31T10:47:35.584Z,12.52
2022-12-31T10:50:39.578Z,12.60
2022-12-31T10:53:24.852Z,12.64
2022-12-31T10:56:12.869Z,12.70
2022-12-31T10:58:45.867Z,12.77
2022-12-31T11:01:58.451Z,12.78
2022-12-31T11:04:52.826Z,12.92
2022-12-31T11:07:41.099Z,12.99
2022-12-31T11:10:26.081Z,13.12
2022-12-31T11:13:28.213Z,13.28
2022-12-31T11:16:23.404Z,13.33
2022-12-31T11:22:11.468Z,13.39
2022-12-31T11:25:04.862Z,13.42
2022-12-31T11:27:55.803Z,13.44
2022-12-31T11:30:25.394Z,13.49
2022-12-31T11:33:00.780Z,13.48
2022-12-31T11:35:39.848Z,13.46
2022-12-31T11:38:17.999Z,13.49
2022-12-31T11:40:54.864Z,13.43
2022-12-31T11:43:38.297Z,13.45
2022-12-31T11:46:43.795Z,13.50
2022-12-31T11:49:44.406Z,13.54
2022-12-31T11:52:27.689Z,13.65
2022-12-31T11:55:18.184Z,13.71
2022-12-31T11:57:52.256Z,13.81
2022-12-31T12:00:20.887Z,13.83
2022-12-31T12:02:49.094Z,13.89
2022-12-31T12:05:20.106Z,13.97
2022-12-31T12:07:47.759Z,13.99
2022-12-31T12:10:36.781Z,14.08
2022-12-31T12:13:19.613Z,14.16
2022-12-31T12:15:50.418Z,14.19
2022-12-31T12:18:24.577Z,14.19
2022-12-31T12:20:51.220Z,14.14
2022-12-31T12:23:25.680Z,14.12
2022-12-31T12:25:52.581Z,14.14
2022-12-31T12:28:19.175Z,14.16
2022-12-31T12:30:52.880Z,14.15
2022-12-31T12:33:20.498Z,14.10
2022-12-31T12:35:47.528Z,14.15
2022-12-31T12:38:22.984Z,14.16
2022-12-31T12:41:01.727Z,14.15
2022-12-31T12:43:32.108Z,14.13
2022-12-31T12:46:05.051Z,14.10
2022-12-31T12:48:43.310Z,14.05
2022-12-31T12:51:43.132Z,13.97
2022-12-31T12:54:18.511Z,13.95
2022-12-31T12:57:17.281Z,13.98
2022-12-31T13:00:07.755Z,13.97
2022-12-31T13:03:14.142Z,14.00
2022-12-31T13:06:24.937Z,13.96
2022-12-31T13:08:56.688Z,13.89
2022-12-31T13:11:59.853Z,13.91
2022-12-31T13:14:58.551Z,13.86
2022-12-31T13:17:40.041Z,13.89
2022-12-31T13:20:29.276Z,13.88
2022-12-31T13:23:00.865Z,13.90
2022-12-31T13:25:42.486Z,13.91
2022-12-31T13:28:13.610Z,13.94
2022-12-31T13:30:44.068Z,13.97
2022-12-31T13:33:22.924Z,13.90
2022-12-31T13:35:49.317Z,13.86
2022-12-31T13:38:28.559Z,13.89
2022-12-31T13:40:57.725Z,13.97
2022-12-31T13:43:36.363Z,13.95
2022-12-31T13:46:26.157Z,13.91
2022-12-31T13:48:58.152Z,13.97
2022-12-31T13:51:38.225Z,13.89
2022-12-31T13:54:33.972Z,13.91
2022-12-31T13:57:06.135Z,13.85
2022-12-31T13:59:37.486Z,13.82
2022-12-31T14:02:26.796Z,13.70
2022-12-31T14:05:00.044Z,13.60
2022-12-31T14:07:52.035Z,13.55
2022-12-31T14:10:28.335Z,13.45
2022-12-31T14:13:32.409Z,13.41
2022-12-31T14:16:28.099Z,13.29
2022-12-31T14:19:04.704Z,13.17
2022-12-31T14:21:44.697Z,13.07
2022-12-31T14:24:25.725Z,12.95
2022-12-31T14:26:56.974Z,12.86
2022-12-31T14:29:39.701Z,12.78
2022-12-31T14:32:39.490Z,12.59
2022-12-31T14:35:39.864Z,12.41
2022-12-31T14:38:25.163Z,12.31
2022-12-31T14:41:06.841Z,12.19
2022-12-31T14:44:01.041Z,12.04
2022-12-31T14:47:01.722Z,11.89
2022-12-31T14:50:04.820Z,11.80
2022-12-31T14:52:35.859Z,11.70
2022-12-31T14:55:15.288Z,11.61
2022-12-31T14:58:25.397Z,11.50
2022-12-31T15:00:38.099Z,11.37
2022-12-31T15:03:22.715Z,11.29
2022-12-31T15:05:55.276Z,11.26
2022-12-31T15:08:53.008Z,11.15
2022-12-31T15:11:45.985Z,11.05
2022-12-31T15:14:37.517Z,10.97
2022-12-31T15:17:28.906Z,10.93
2022-12-31T15:20:05.299Z,10.83
2022-12-31T15:22:40.230Z,10.69
2022-12-31T15:25:35.379Z,10.71
2022-12-31T15:28:20.928Z,10.60
2022-12-31T15:30:48.745Z,10.56
2022-12-31T15:33:33.973Z,10.46
2022-12-31T15:36:13.409Z,10.43
2022-12-31T15:38:41.307Z,10.35
2022-12-31T15:41:28.859Z,10.35
2022-12-31T15:44:38.391Z,10.28
2022-12-31T15:47:24.436Z,10.10
2022-12-31T15:49:53.651Z,10.10
2022-12-31T15:52:19.970Z,10.10
2022-12-31T15:54:50.353Z,10.07
2022-12-31T15:57:25.446Z,10.04
2022-12-31T15:59:58.990Z,9.88
2022-12-31T16:02:27.317Z,9.81
2022-12-31T16:04:54.954Z,9.73
2022-12-31T16:07:23.692Z,9.74
2022-12-31T16:09:53.568Z,9.70
2022-12-31T16:12:27.778Z,9.72
2022-12-31T16:14:59.366Z,9.69
2022-12-31T16:17:33.655Z,9.65
2022-12-31T16:20:02.295Z,9.57
2022-12-31T16:22:39.330Z,9.53
2022-12-31T16:27:54.405Z,9.43
2022-12-31T16:30:35.915Z,9.46
2022-12-31T16:33:06.087Z,9.48
2022-12-31T16:35:37.329Z,9.43
2022-12-31T16:38:19.525Z,9.38
2022-12-31T16:41:07.956Z,9.32
2022-12-31T16:43:41.598Z,9.37
2022-12-31T16:46:31.100Z,9.31
2022-12-31T16:49:15.162Z,9.21
2022-12-31T16:51:41.957Z,9.22
2022-12-31T16:54:20.613Z,9.19
2022-12-31T16:56:47.488Z,9.18
2022-12-31T16:59:33.313Z,9.09
2022-12-31T17:02:04.881Z,9.12
2022-12-31T17:04:31.523Z,9.07
2022-12-31T17:07:25.189Z,9.05
2022-12-31T17:10:06.632Z,8.98
2022-12-31T17:12:53.072Z,8.97
2022-12-31T17:15:26.677Z,8.86
2022-12-31T17:17:57.733Z,8.79
2022-12-31T17:20:26.132Z,8.80
2022-12-31T17:23:00.951Z,8.79
2022-12-31T17:25:30.155Z,8.79
2022-12-31T17:28:02.441Z,8.77
2022-12-31T17:30:32.584Z,8.73
2022-12-31T17:33:24.482Z,8.70
2022-12-31T17:36:14.752Z,8.71
2022-12-31T17:38:41.269Z,8.66
2022-12-31T17:41:07.656Z,8.68
2022-12-31T17:43:36.242Z,8.67
2022-12-31T17:46:08.704Z,8.69
2022-12-31T17:48:36.816Z,8.64
2022-12-31T17:51:03.284Z,8.66
2022-12-31T17:53:29.634Z,8.52
2022-12-31T17:56:00.285Z,8.56
2022-12-31T17:58:29.785Z,8.55
2022-12-31T18:00:57.032Z,8.54
2022-12-31T18:03:23.575Z,8.45
2022-12-31T18:05:50.056Z,8.40
2022-12-31T18:08:16.400Z,8.30
2022-12-31T18:10:44.266Z,8.43
2022-12-31T18:13:15.314Z,8.37
2022-12-31T18:15:41.714Z,8.35
2022-12-31T18:18:24.730Z,8.31
2022-12-31T18:20:56.089Z,8.33
2022-12-31T18:23:27.519Z,8.33
2022-12-31T18:25:54.179Z,8.26
2022-12-31T18:28:21.005Z,8.32
2022-12-31T18:30:48.406Z,8.23
2022-12-31T18:33:22.294Z,8.24
2022-12-31T18:36:08.098Z,8.21
2022-12-31T18:38:35.582Z,8.27
2022-12-31T18:41:02.158Z,8.18
2022-12-31T18:43:28.525Z,8.27
2022-12-31T18:45:55.030Z,8.24
2022-12-31T18:48:21.441Z,8.24
2022-12-31T18:50:48.522Z,8.21
2022-12-31T18:53:17.932Z,8.19
2022-12-31T18:55:51.713Z,8.15
2022-12-31T18:58:18.644Z,8.17
2022-12-31T19:00:45.630Z,8.16
2022-12-31T19:03:23.772Z,8.16
2022-12-31T19:05:51.416Z,8.10
2022-12-31T19:08:19.469Z,8.11
2022-12-31T19:10:47.132Z,8.08
2022-12-31T19:13:15.418Z,8.03
2022-12-31T19:15:43.171Z,7.96
2022-12-31T19:18:09.707Z,8.00
2022-12-31T19:20:36.079Z,8.01
2022-12-31T19:23:02.610Z,7.96
2022-12-31T19:25:34.283Z,8.00
2022-12-31T19:28:01.630Z,8.00
2022-12-31T19:30:31.364Z,7.95
2022-12-31T19:32:58.448Z,7.86
2022-12-31T19:35:25.904Z,7.86
2022-12-31T19:37:53.977Z,7.85
2022-12-31T19:40:27.161Z,7.81
2022-12-31T19:42:55.636Z,7.78
2022-12-31T19:45:25.044Z,7.79
2022-12-31T19:47:52.705Z,7.78
2022-12-31T19:50:22.274Z,7.82
2022-12-31T19:52:51.206Z,7.79
2022-12-31T19:55:20.382Z,7.76
2022-12-31T19:57:47.909Z,7.74
2022-12-31T20:00:16.524Z,7.73
2022-12-31T20:02:44.895Z,7.76
2022-12-31T20:05:14.300Z,7.75
2022-12-31T20:07:40.891Z,7.70
2022-12-31T20:10:07.904Z,7.70
2022-12-31T20:12:39.087Z,7.68
2022-12-31T20:15:09.138Z,7.68
2022-12-31T20:17:36.447Z,7.72
2022-12-31T20:20:03.827Z,7.69
2022-12-31T20:22:30.162Z,7.68
2022-12-31T20:24:56.615Z,7.65
2022-12-31T20:27:23.069Z,7.68
2022-12-31T20:29:49.615Z,7.67
2022-12-31T20:32:16.123Z,7.65
2022-12-31T20:34:42.577Z,7.64
2022-12-31T20:37:09.104Z,7.62
2022-12-31T20:39:35.577Z,7.60
2022-12-31T20:42:02.095Z,7.59
2022-12-31T20:44:28.645Z,7.63
2022-12-31T20:46:55.227Z,7.63
2022-12-31T20:49:44.437Z,7.64
2022-12-31T20:52:08.196Z,7.55
2022-12-31T20:54:35.664Z,7.55
2022-12-31T20:57:02.182Z,7.55
2022-12-31T20:59:28.580Z,7.48
2022-12-31T21:02:20.608Z,7.38
2022-12-31T21:04:42.082Z,7.41
2022-12-31T21:07:08.536Z,7.33
2022-12-31T21:09:35.961Z,7.40
2022-12-31T21:12:21.076Z,7.31
2022-12-31T21:14:47.441Z,7.34
2022-12-31T21:17:13.841Z,7.35
2022-12-31T21:19:40.188Z,7.34
2022-12-31T21:22:06.589Z,7.37
2022-12-31T21:24:32.990Z,7.32
2022-12-31T21:26:59.361Z,7.31
2022-12-31T21:29:27.838Z,7.34
2022-12-31T21:31:57.698Z,7.35
2022-12-31T21:34:24.047Z,7.31
2022-12-31T21:36:50.472Z,7.27
2022-12-31T21:39:17.026Z,7.25
2022-12-31T21:41:52.181Z,7.25
2022-12-31T21:44:24.234Z,7.24
2022-12-31T21:47:33.756Z,7.19
2022-12-31T21:49:46.481Z,7.17
2022-12-31T21:52:26.002Z,7.12
2022-12-31T21:55:16.181Z,7.11
2022-12-31T21:58:23.613Z,7.11
2022-12-31T22:00:49.282Z,7.16
2022-12-31T22:03:24.427Z,7.06
2022-12-31T22:06:00.159Z,7.08
2022-12-31T22:08:28.488Z,7.05
2022-12-31T22:10:55.081Z,7.02
2022-12-31T22:13:22.261Z,7.03
2022-12-31T22:15:58.714Z,6.99
2022-12-31T22:18:28.508Z,6.96
2022-12-31T22:21:05.063Z,7.00
2022-12-31T22:23:32.488Z,7.03
2022-12-31T22:25:59.506Z,7.08
2022-12-31T22:28:41.373Z,7.06
2022-12-31T22:31:14.563Z,7.06
2022-12-31T22:33:42.127Z,7.11
2022-12-31T22:36:12.726Z,7.11
2022-12-31T22:38:39.309Z,7.11
2022-12-31T22:41:08.253Z,7.15
2022-12-31T22:43:37.014Z,7.12
2022-12-31T22:46:12.261Z,7.14
2022-12-31T22:48:39.431Z,7.16
2022-12-31T22:51:07.220Z,7.13
2022-12-31T22:53:33.640Z,7.20
2022-12-31T22:56:00.133Z,7.24
2022-12-31T22:58:27.049Z,7.27
2022-12-31T23:00:53.647Z,7.30
2022-12-31T23:03:20.442Z,7.27
2022-12-31T23:05:51.485Z,7.31
2022-12-31T23:08:23.289Z,7.28
2022-12-31T23:11:03.666Z,7.32
2022-12-31T23:13:54.753Z,7.35
2022-12-31T23:16:40.665Z,7.38
2022-12-31T23:19:26.095Z,7.38
2022-12-31T23:22:11.894Z,7.38
2022-12-31T23:24:39.072Z,7.44
2022-12-31T23:27:06.148Z,7.49
2022-12-31T23:29:33.017Z,7.49
2022-12-31T23:31:59.752Z,7.42
2022-12-31T23:34:26.274Z,7.38
2022-12-31T23:36:52.645Z,7.38
2022-12-31T23:39:19.324Z,7.39
2022-12-31T23:41:45.756Z,7.38
2022-12-31T23:44:12.337Z,7.43
2022-12-31T23:46:39.850Z,7.41
2022-12-31T23:49:06.639Z,7.45
2022-12-31T23:51:33.171Z,7.41
2022-12-31T23:53:59.512Z,7.37
2022-12-31T23:56:25.852Z,7.31
2022-12-31T23:58:57.108Z,7.30
